Highwood, MT (59450)

9:46 PM MST on December 28, 2014 (GMT -0700)
APRSWXNET Highwood MT US | Change Station
CLOSE
Current Station
Personal Weather Station
Location: Highwood, MT
Elevation: 3487 ft
Nearby Weather Stations

Elev 3487 ft 47.50 °N, 110.86 °W | Updated 41 minutes ago

Snow
Snow
10 °F
Feels Like 10 °F
N
3
Wind Variable Wind from North
Gusts 7.0 mph

Today
High -- | Low -- °F
--% Chance of Precip.
Yesterday
High -- | Low -- °F
Precip. -- in
8:10 AM 4:38 PM
First Quarter, 55% visible
Pressure 30.39 in
Visibility 2.0 miles
Clouds Overcast 1700 ft
Windchill 10 °F
Dew Point 6 °F
Humidity 84%
Rainfall 0.00 in
Snow Depth Not available.
UV 0 out of 12
Pollen .10 out of 12
Air Quality Not available.
Flu Activity Not available.
SPECI KGFA 290436Z AUTO 33009KT 2SM -SN OVC017 M14/M15 A3039 RMK AO2

More Conditions Fewer Conditions

Pressure 30.39 in
Visibility 2.0 miles
Clouds Overcast 1700 ft
Windchill 10 °F
Dew Point 6 °F
Humidity 84%
Rainfall 0.00 in
Snow Depth Not available.
UV 0 out of 12
Pollen .10 out of 12
Air Quality Not available.
Flu Activity Not available.
SPECI KGFA 290436Z AUTO 33009KT 2SM -SN OVC017 M14/M15 A3039 RMK AO2

More Conditions Fewer Conditions

10-Day Weather Forecast

Almanac

Astronomy

Dec. 28, 2014 Rise Set
Actual Time
Civil Twilight
Nautical Twilight
Astronomical Twilight
Moon
Length of Visible Light
Length of Day
Tomorrow will be .
, % of the Moon is Illuminated

Today's Extremes

State Highs State Lows

Community

WunderPhotos

Upload Photos

1,781,530 photos uploaded!

WunderBlogs® & News

Nearby

Air Quality

  Air Quality AQ Index Pollutant
Not available.

Snow Depth

Station Depth Elevation

Earthquake Activity

City Distance Mag. Time & Date
Minimum magnitude displayed is 2.5.

Coastal Water Temperatures

Place Temperature

Nearby Weather Stations